sensor_id;sensor_type;location;lat;lon;timestamp;temperature;humidity
8436;DHT22;4255;48.730;9.156;2023-03-03T00:01:21;5.20;99.90
8436;DHT22;4255;48.730;9.156;2023-03-03T00:03:50;5.20;99.90
8436;DHT22;4255;48.730;9.156;2023-03-03T00:06:15;5.10;99.90
8436;DHT22;4255;48.730;9.156;2023-03-03T00:08:41;5.00;99.90
8436;DHT22;4255;48.730;9.156;2023-03-03T00:11:08;5.00;99.90
8436;DHT22;4255;48.730;9.156;2023-03-03T00:13:47;4.90;99.90
8436;DHT22;4255;48.730;9.156;2023-03-03T00:16:24;4.90;99.90
8436;DHT22;4255;48.730;9.156;2023-03-03T00:18:50;4.90;99.90
8436;DHT22;4255;48.730;9.156;2023-03-03T00:21:41;4.80;99.90
8436;DHT22;4255;48.730;9.156;2023-03-03T00:24:20;4.80;99.90
8436;DHT22;4255;48.730;9.156;2023-03-03T00:26:54;4.90;99.90
8436;DHT22;4255;48.730;9.156;2023-03-03T00:29:35;4.90;99.90
8436;DHT22;4255;48.730;9.156;2023-03-03T00:32:20;4.90;99.90
8436;DHT22;4255;48.730;9.156;2023-03-03T00:34:47;4.90;99.90
8436;DHT22;4255;48.730;9.156;2023-03-03T00:37:26;4.90;99.90
8436;DHT22;4255;48.730;9.156;2023-03-03T00:39:55;4.90;99.90
8436;DHT22;4255;48.730;9.156;2023-03-03T00:42:23;4.80;99.90
8436;DHT22;4255;48.730;9.156;2023-03-03T00:44:59;4.80;99.90
8436;DHT22;4255;48.730;9.156;2023-03-03T00:47:38;4.80;99.90
8436;DHT22;4255;48.730;9.156;2023-03-03T00:52:50;4.70;99.90
8436;DHT22;4255;48.730;9.156;2023-03-03T00:55:18;4.70;99.90
8436;DHT22;4255;48.730;9.156;2023-03-03T00:57:44;4.60;99.90
8436;DHT22;4255;48.730;9.156;2023-03-03T01:00:10;4.60;99.90
8436;DHT22;4255;48.730;9.156;2023-03-03T01:02:36;4.60;99.90
8436;DHT22;4255;48.730;9.156;2023-03-03T01:05:01;4.50;99.90
8436;DHT22;4255;48.730;9.156;2023-03-03T01:07:27;4.50;99.90
8436;DHT22;4255;48.730;9.156;2023-03-03T01:09:52;4.50;99.90
8436;DHT22;4255;48.730;9.156;2023-03-03T01:12:18;4.40;99.90
8436;DHT22;4255;48.730;9.156;2023-03-03T01:14:43;4.40;99.90
8436;DHT22;4255;48.730;9.156;2023-03-03T01:17:09;4.30;99.90
8436;DHT22;4255;48.730;9.156;2023-03-03T01:19:35;4.30;99.90
8436;DHT22;4255;48.730;9.156;2023-03-03T01:22:00;4.20;99.90
8436;DHT22;4255;48.730;9.156;2023-03-03T01:24:26;4.20;99.90
8436;DHT22;4255;48.730;9.156;2023-03-03T01:26:52;4.10;99.90
8436;DHT22;4255;48.730;9.156;2023-03-03T01:29:17;4.10;99.90
8436;DHT22;4255;48.730;9.156;2023-03-03T01:31:43;4.20;99.90
8436;DHT22;4255;48.730;9.156;2023-03-03T01:34:08;4.20;99.90
8436;DHT22;4255;48.730;9.156;2023-03-03T01:36:34;4.10;99.90
8436;DHT22;4255;48.730;9.156;2023-03-03T01:39:01;4.00;99.90
8436;DHT22;4255;48.730;9.156;2023-03-03T01:41:28;3.90;99.90
8436;DHT22;4255;48.730;9.156;2023-03-03T01:43:56;3.90;99.90
8436;DHT22;4255;48.730;9.156;2023-03-03T01:46:39;3.90;99.90
8436;DHT22;4255;48.730;9.156;2023-03-03T01:49:16;3.90;99.90
8436;DHT22;4255;48.730;9.156;2023-03-03T01:51:51;3.90;99.90
8436;DHT22;4255;48.730;9.156;2023-03-03T01:54:22;3.90;99.90
8436;DHT22;4255;48.730;9.156;2023-03-03T01:56:49;3.90;99.90
8436;DHT22;4255;48.730;9.156;2023-03-03T01:59:25;3.80;99.90
8436;DHT22;4255;48.730;9.156;2023-03-03T02:01:53;3.90;99.90
8436;DHT22;4255;48.730;9.156;2023-03-03T02:04:18;3.80;99.90
8436;DHT22;4255;48.730;9.156;2023-03-03T02:07:02;3.80;99.90
8436;DHT22;4255;48.730;9.156;2023-03-03T02:12:13;3.70;99.90
8436;DHT22;4255;48.730;9.156;2023-03-03T02:14:40;3.70;99.90
8436;DHT22;4255;48.730;9.156;2023-03-03T02:17:06;3.60;99.90
8436;DHT22;4255;48.730;9.156;2023-03-03T02:19:38;3.60;99.90
8436;DHT22;4255;48.730;9.156;2023-03-03T02:22:06;3.60;99.90
8436;DHT22;4255;48.730;9.156;2023-03-03T02:24:34;3.60;99.90
8436;DHT22;4255;48.730;9.156;2023-03-03T02:27:02;3.60;99.90
8436;DHT22;4255;48.730;9.156;2023-03-03T02:29:28;3.50;99.90
8436;DHT22;4255;48.730;9.156;2023-03-03T02:31:53;3.50;99.90
8436;DHT22;4255;48.730;9.156;2023-03-03T02:34:19;3.40;99.90
8436;DHT22;4255;48.730;9.156;2023-03-03T02:36:44;3.40;99.90
8436;DHT22;4255;48.730;9.156;2023-03-03T02:39:20;3.40;99.90
8436;DHT22;4255;48.730;9.156;2023-03-03T02:42:07;3.40;99.90
8436;DHT22;4255;48.730;9.156;2023-03-03T02:44:37;3.40;99.90
8436;DHT22;4255;48.730;9.156;2023-03-03T02:47:03;3.40;99.90
8436;DHT22;4255;48.730;9.156;2023-03-03T02:49:31;3.40;99.90
8436;DHT22;4255;48.730;9.156;2023-03-03T02:51:58;3.50;99.90
8436;DHT22;4255;48.730;9.156;2023-03-03T02:54:26;3.60;99.90
8436;DHT22;4255;48.730;9.156;2023-03-03T02:56:52;3.60;99.90
8436;DHT22;4255;48.730;9.156;2023-03-03T02:59:18;3.60;99.90
8436;DHT22;4255;48.730;9.156;2023-03-03T03:01:45;3.70;99.90
8436;DHT22;4255;48.730;9.156;2023-03-03T03:04:16;3.80;99.90
8436;DHT22;4255;48.730;9.156;2023-03-03T03:06:43;3.90;99.90
8436;DHT22;4255;48.730;9.156;2023-03-03T03:09:09;4.00;99.90
8436;DHT22;4255;48.730;9.156;2023-03-03T03:11:36;4.10;99.90
8436;DHT22;4255;48.730;9.156;2023-03-03T03:14:08;4.20;99.90
8436;DHT22;4255;48.730;9.156;2023-03-03T03:16:34;4.20;99.90
8436;DHT22;4255;48.730;9.156;2023-03-03T03:19:00;4.10;99.90
8436;DHT22;4255;48.730;9.156;2023-03-03T03:21:26;4.00;99.90
8436;DHT22;4255;48.730;9.156;2023-03-03T03:23:52;4.00;99.90
8436;DHT22;4255;48.730;9.156;2023-03-03T03:26:18;4.00;99.90
8436;DHT22;4255;48.730;9.156;2023-03-03T03:28:46;4.10;99.90
8436;DHT22;4255;48.730;9.156;2023-03-03T03:31:11;4.10;99.90
8436;DHT22;4255;48.730;9.156;2023-03-03T03:33:37;3.90;99.90
8436;DHT22;4255;48.730;9.156;2023-03-03T03:36:03;4.10;99.90
8436;DHT22;4255;48.730;9.156;2023-03-03T03:38:31;4.20;99.90
8436;DHT22;4255;48.730;9.156;2023-03-03T03:40:58;4.30;99.90
8436;DHT22;4255;48.730;9.156;2023-03-03T03:43:24;4.50;99.90
8436;DHT22;4255;48.730;9.156;2023-03-03T03:45:51;4.60;99.90
8436;DHT22;4255;48.730;9.156;2023-03-03T03:48:16;4.70;99.90
8436;DHT22;4255;48.730;9.156;2023-03-03T03:50:44;4.70;99.90
8436;DHT22;4255;48.730;9.156;2023-03-03T03:53:10;4.70;99.90
8436;DHT22;4255;48.730;9.156;2023-03-03T03:55:35;4.70;99.90
8436;DHT22;4255;48.730;9.156;2023-03-03T03:58:01;4.70;99.90
8436;DHT22;4255;48.730;9.156;2023-03-03T04:00:26;4.60;99.90
8436;DHT22;4255;48.730;9.156;2023-03-03T04:02:52;4.70;99.90
8436;DHT22;4255;48.730;9.156;2023-03-03T04:05:18;4.60;99.90
8436;DHT22;4255;48.730;9.156;2023-03-03T04:07:44;4.60;99.90
8436;DHT22;4255;48.730;9.156;2023-03-03T04:10:11;4.60;99.90
8436;DHT22;4255;48.730;9.156;2023-03-03T04:12:36;4.50;99.90
8436;DHT22;4255;48.730;9.156;2023-03-03T04:15:07;4.60;99.90
8436;DHT22;4255;48.730;9.156;2023-03-03T04:17:33;4.70;99.90
8436;DHT22;4255;48.730;9.156;2023-03-03T04:19:58;4.80;99.90
8436;DHT22;4255;48.730;9.156;2023-03-03T04:22:24;4.80;99.90
8436;DHT22;4255;48.730;9.156;2023-03-03T04:24:50;4.80;99.90
8436;DHT22;4255;48.730;9.156;2023-03-03T04:27:15;4.60;99.90
8436;DHT22;4255;48.730;9.156;2023-03-03T04:29:41;4.80;99.90
8436;DHT22;4255;48.730;9.156;2023-03-03T04:32:07;4.90;99.90
8436;DHT22;4255;48.730;9.156;2023-03-03T04:34:32;5.00;99.90
8436;DHT22;4255;48.730;9.156;2023-03-03T04:36:58;5.10;99.90
8436;DHT22;4255;48.730;9.156;2023-03-03T04:39:24;5.10;99.90
8436;DHT22;4255;48.730;9.156;2023-03-03T04:41:51;5.20;99.90
8436;DHT22;4255;48.730;9.156;2023-03-03T04:44:17;5.30;99.90
8436;DHT22;4255;48.730;9.156;2023-03-03T04:46:42;5.30;99.90
8436;DHT22;4255;48.730;9.156;2023-03-03T04:49:08;5.30;99.90
8436;DHT22;4255;48.730;9.156;2023-03-03T04:51:34;5.30;99.90
8436;DHT22;4255;48.730;9.156;2023-03-03T04:54:00;5.10;99.90
8436;DHT22;4255;48.730;9.156;2023-03-03T04:56:26;5.10;99.90
8436;DHT22;4255;48.730;9.156;2023-03-03T04:58:52;5.10;99.90
8436;DHT22;4255;48.730;9.156;2023-03-03T05:01:18;4.90;99.90
8436;DHT22;4255;48.730;9.156;2023-03-03T05:03:44;5.00;99.90
8436;DHT22;4255;48.730;9.156;2023-03-03T05:06:09;4.90;99.90
8436;DHT22;4255;48.730;9.156;2023-03-03T05:08:35;5.00;99.90
8436;DHT22;4255;48.730;9.156;2023-03-03T05:11:03;5.00;99.90
8436;DHT22;4255;48.730;9.156;2023-03-03T05:13:29;5.00;99.90
8436;DHT22;4255;48.730;9.156;2023-03-03T05:15:55;5.00;99.90
8436;DHT22;4255;48.730;9.156;2023-03-03T05:18:22;4.80;99.90
8436;DHT22;4255;48.730;9.156;2023-03-03T05:20:50;4.80;99.90
8436;DHT22;4255;48.730;9.156;2023-03-03T05:23:16;4.60;99.90
8436;DHT22;4255;48.730;9.156;2023-03-03T05:25:42;4.50;99.90
8436;DHT22;4255;48.730;9.156;2023-03-03T05:28:08;4.40;99.90
8436;DHT22;4255;48.730;9.156;2023-03-03T05:30:35;4.30;99.90
8436;DHT22;4255;48.730;9.156;2023-03-03T05:33:01;4.10;99.90
8436;DHT22;4255;48.730;9.156;2023-03-03T05:35:27;4.10;99.90
8436;DHT22;4255;48.730;9.156;2023-03-03T05:37:53;4.20;99.90
8436;DHT22;4255;48.730;9.156;2023-03-03T05:40:19;4.20;99.90
8436;DHT22;4255;48.730;9.156;2023-03-03T05:42:45;4.30;99.90
8436;DHT22;4255;48.730;9.156;2023-03-03T05:45:11;4.30;99.90
8436;DHT22;4255;48.730;9.156;2023-03-03T05:47:37;4.30;99.90
8436;DHT22;4255;48.730;9.156;2023-03-03T05:50:04;4.40;99.90
8436;DHT22;4255;48.730;9.156;2023-03-03T05:52:29;4.50;99.90
8436;DHT22;4255;48.730;9.156;2023-03-03T05:54:55;4.40;99.90
8436;DHT22;4255;48.730;9.156;2023-03-03T05:57:21;4.50;99.90
8436;DHT22;4255;48.730;9.156;2023-03-03T05:59:46;4.50;99.90
8436;DHT22;4255;48.730;9.156;2023-03-03T06:02:13;4.40;99.90
8436;DHT22;4255;48.730;9.156;2023-03-03T06:04:39;4.20;99.90
8436;DHT22;4255;48.730;9.156;2023-03-03T06:07:05;4.10;99.90
8436;DHT22;4255;48.730;9.156;2023-03-03T06:09:31;4.10;99.90
8436;DHT22;4255;48.730;9.156;2023-03-03T06:11:57;4.20;99.90
8436;DHT22;4255;48.730;9.156;2023-03-03T06:14:23;3.90;99.90
8436;DHT22;4255;48.730;9.156;2023-03-03T06:16:49;3.70;99.90
8436;DHT22;4255;48.730;9.156;2023-03-03T06:19:15;3.70;99.90
8436;DHT22;4255;48.730;9.156;2023-03-03T06:21:40;3.60;99.90
8436;DHT22;4255;48.730;9.156;2023-03-03T06:24:07;3.70;99.90
8436;DHT22;4255;48.730;9.156;2023-03-03T06:26:33;3.90;99.90
8436;DHT22;4255;48.730;9.156;2023-03-03T06:28:59;3.90;99.90
8436;DHT22;4255;48.730;9.156;2023-03-03T06:31:25;3.90;99.90
8436;DHT22;4255;48.730;9.156;2023-03-03T06:33:51;4.00;99.90
8436;DHT22;4255;48.730;9.156;2023-03-03T06:36:17;3.90;99.90
8436;DHT22;4255;48.730;9.156;2023-03-03T06:38:43;4.00;99.90
8436;DHT22;4255;48.730;9.156;2023-03-03T06:41:09;3.90;99.90
8436;DHT22;4255;48.730;9.156;2023-03-03T06:43:35;3.80;99.90
8436;DHT22;4255;48.730;9.156;2023-03-03T06:46:02;3.80;99.90
8436;DHT22;4255;48.730;9.156;2023-03-03T06:48:28;3.60;99.90
8436;DHT22;4255;48.730;9.156;2023-03-03T06:50:54;3.70;99.90
8436;DHT22;4255;48.730;9.156;2023-03-03T06:53:19;3.70;99.90
8436;DHT22;4255;48.730;9.156;2023-03-03T06:55:45;3.70;99.90
8436;DHT22;4255;48.730;9.156;2023-03-03T06:58:19;3.80;99.90
8436;DHT22;4255;48.730;9.156;2023-03-03T07:00:56;4.00;99.90
8436;DHT22;4255;48.730;9.156;2023-03-03T07:03:27;4.10;99.90
8436;DHT22;4255;48.730;9.156;2023-03-03T07:05:56;4.30;99.90
8436;DHT22;4255;48.730;9.156;2023-03-03T07:08:23;4.40;99.90
8436;DHT22;4255;48.730;9.156;2023-03-03T07:10:50;4.40;99.90
8436;DHT22;4255;48.730;9.156;2023-03-03T07:13:26;4.60;99.90
8436;DHT22;4255;48.730;9.156;2023-03-03T07:15:54;4.80;99.90
8436;DHT22;4255;48.730;9.156;2023-03-03T07:19:00;4.70;99.90
8436;DHT22;4255;48.730;9.156;2023-03-03T07:21:33;4.70;99.90
8436;DHT22;4255;48.730;9.156;2023-03-03T07:24:36;4.70;99.90
8436;DHT22;4255;48.730;9.156;2023-03-03T07:27:13;4.80;99.90
8436;DHT22;4255;48.730;9.156;2023-03-03T07:29:40;4.80;99.90
8436;DHT22;4255;48.730;9.156;2023-03-03T07:35:00;5.10;99.90
8436;DHT22;4255;48.730;9.156;2023-03-03T07:37:38;5.10;99.90
8436;DHT22;4255;48.730;9.156;2023-03-03T07:42:59;5.20;99.90
8436;DHT22;4255;48.730;9.156;2023-03-03T07:45:30;5.10;99.90
8436;DHT22;4255;48.730;9.156;2023-03-03T07:48:50;5.30;99.90
8436;DHT22;4255;48.730;9.156;2023-03-03T07:53:47;5.30;99.90
8436;DHT22;4255;48.730;9.156;2023-03-03T07:58:47;5.50;99.90
8436;DHT22;4255;48.730;9.156;2023-03-03T08:01:34;5.40;99.90
8436;DHT22;4255;48.730;9.156;2023-03-03T08:04:14;5.40;99.90
8436;DHT22;4255;48.730;9.156;2023-03-03T08:06:47;5.80;99.90
8436;DHT22;4255;48.730;9.156;2023-03-03T08:09:26;5.90;99.90
8436;DHT22;4255;48.730;9.156;2023-03-03T08:11:58;5.90;99.90
8436;DHT22;4255;48.730;9.156;2023-03-03T08:14:32;5.90;99.90
8436;DHT22;4255;48.730;9.156;2023-03-03T08:16:59;6.10;99.90
8436;DHT22;4255;48.730;9.156;2023-03-03T08:19:25;6.40;99.90
8436;DHT22;4255;48.730;9.156;2023-03-03T08:21:55;6.70;99.90
8436;DHT22;4255;48.730;9.156;2023-03-03T08:24:24;6.80;99.90
8436;DHT22;4255;48.730;9.156;2023-03-03T08:26:49;6.60;99.90
8436;DHT22;4255;48.730;9.156;2023-03-03T08:29:15;6.60;99.90
8436;DHT22;4255;48.730;9.156;2023-03-03T08:31:41;6.70;99.90
8436;DHT22;4255;48.730;9.156;2023-03-03T08:34:06;6.80;99.90
8436;DHT22;4255;48.730;9.156;2023-03-03T08:36:32;7.00;99.90
8436;DHT22;4255;48.730;9.156;2023-03-03T08:38:57;6.80;99.90
8436;DHT22;4255;48.730;9.156;2023-03-03T08:41:23;6.90;99.90
8436;DHT22;4255;48.730;9.156;2023-03-03T08:43:49;6.90;99.90
8436;DHT22;4255;48.730;9.156;2023-03-03T08:46:14;6.90;99.90
8436;DHT22;4255;48.730;9.156;2023-03-03T08:48:40;6.80;99.90
8436;DHT22;4255;48.730;9.156;2023-03-03T08:51:06;6.60;99.90
8436;DHT22;4255;48.730;9.156;2023-03-03T08:53:31;6.80;99.90
8436;DHT22;4255;48.730;9.156;2023-03-03T08:56:01;7.00;99.90
8436;DHT22;4255;48.730;9.156;2023-03-03T08:58:26;7.10;99.90
8436;DHT22;4255;48.730;9.156;2023-03-03T09:00:52;7.10;99.90
8436;DHT22;4255;48.730;9.156;2023-03-03T09:03:18;7.30;99.90
8436;DHT22;4255;48.730;9.156;2023-03-03T09:05:44;7.10;99.90
8436;DHT22;4255;48.730;9.156;2023-03-03T09:08:10;7.40;99.90
8436;DHT22;4255;48.730;9.156;2023-03-03T09:10:36;7.50;99.90
8436;DHT22;4255;48.730;9.156;2023-03-03T09:13:16;7.50;99.90
8436;DHT22;4255;48.730;9.156;2023-03-03T09:15:43;7.20;99.90
8436;DHT22;4255;48.730;9.156;2023-03-03T09:18:30;7.20;99.90
8436;DHT22;4255;48.730;9.156;2023-03-03T09:20:56;6.90;99.90
8436;DHT22;4255;48.730;9.156;2023-03-03T09:23:35;7.20;99.90
8436;DHT22;4255;48.730;9.156;2023-03-03T09:26:23;7.20;99.90
8436;DHT22;4255;48.730;9.156;2023-03-03T09:28:56;7.10;99.90
8436;DHT22;4255;48.730;9.156;2023-03-03T09:31:27;7.20;99.90
8436;DHT22;4255;48.730;9.156;2023-03-03T09:33:56;7.50;99.90
8436;DHT22;4255;48.730;9.156;2023-03-03T09:36:36;7.60;99.90
8436;DHT22;4255;48.730;9.156;2023-03-03T09:39:15;7.50;99.90
8436;DHT22;4255;48.730;9.156;2023-03-03T09:53:30;7.80;99.90
8436;DHT22;4255;48.730;9.156;2023-03-03T09:56:02;8.00;99.90
8436;DHT22;4255;48.730;9.156;2023-03-03T09:59:32;8.10;99.90
8436;DHT22;4255;48.730;9.156;2023-03-03T10:07:25;7.60;99.90
8436;DHT22;4255;48.730;9.156;2023-03-03T10:13:07;7.60;99.90
8436;DHT22;4255;48.730;9.156;2023-03-03T10:18:34;7.80;99.90
8436;DHT22;4255;48.730;9.156;2023-03-03T10:32:32;7.90;99.90
8436;DHT22;4255;48.730;9.156;2023-03-03T10:43:23;8.20;99.90
8436;DHT22;4255;48.730;9.156;2023-03-03T10:54:44;8.70;99.90
8436;DHT22;4255;48.730;9.156;2023-03-03T10:57:29;8.80;99.90
8436;DHT22;4255;48.730;9.156;2023-03-03T11:05:39;8.80;99.90
8436;DHT22;4255;48.730;9.156;2023-03-03T11:08:15;8.70;99.90
8436;DHT22;4255;48.730;9.156;2023-03-03T11:18:50;8.80;99.90
8436;DHT22;4255;48.730;9.156;2023-03-03T11:21:27;8.70;99.90
8436;DHT22;4255;48.730;9.156;2023-03-03T11:37:09;9.20;99.90
8436;DHT22;4255;48.730;9.156;2023-03-03T11:39:37;9.30;99.90
8436;DHT22;4255;48.730;9.156;2023-03-03T11:42:11;9.20;99.90
8436;DHT22;4255;48.730;9.156;2023-03-03T11:44:47;9.20;99.90
8436;DHT22;4255;48.730;9.156;2023-03-03T11:52:44;9.00;99.90
8436;DHT22;4255;48.730;9.156;2023-03-03T11:55:35;9.00;99.90
8436;DHT22;4255;48.730;9.156;2023-03-03T12:01:07;9.00;99.90
8436;DHT22;4255;48.730;9.156;2023-03-03T12:03:40;9.10;99.90
8436;DHT22;4255;48.730;9.156;2023-03-03T12:09:18;9.10;99.90
8436;DHT22;4255;48.730;9.156;2023-03-03T12:15:03;9.30;99.90
8436;DHT22;4255;48.730;9.156;2023-03-03T12:20:28;9.70;99.90
8436;DHT22;4255;48.730;9.156;2023-03-03T12:23:09;9.60;99.90
8436;DHT22;4255;48.730;9.156;2023-03-03T12:25:56;9.50;99.90
8436;DHT22;4255;48.730;9.156;2023-03-03T12:31:35;9.20;99.90
8436;DHT22;4255;48.730;9.156;2023-03-03T12:47:58;9.50;99.90
8436;DHT22;4255;48.730;9.156;2023-03-03T12:53:08;9.60;99.90
8436;DHT22;4255;48.730;9.156;2023-03-03T12:55:55;9.70;99.90
8436;DHT22;4255;48.730;9.156;2023-03-03T12:58:35;9.50;99.90
8436;DHT22;4255;48.730;9.156;2023-03-03T13:15:11;10.00;99.90
8436;DHT22;4255;48.730;9.156;2023-03-03T13:18:09;10.00;99.90
8436;DHT22;4255;48.730;9.156;2023-03-03T13:20:53;10.20;99.90
8436;DHT22;4255;48.730;9.156;2023-03-03T13:26:42;10.10;99.90
8436;DHT22;4255;48.730;9.156;2023-03-03T13:29:25;10.10;99.90
8436;DHT22;4255;48.730;9.156;2023-03-03T13:31:59;10.10;99.90
8436;DHT22;4255;48.730;9.156;2023-03-03T13:34:38;10.30;99.90
8436;DHT22;4255;48.730;9.156;2023-03-03T13:39:37;10.30;99.90
8436;DHT22;4255;48.730;9.156;2023-03-03T13:44:41;10.10;99.90
8436;DHT22;4255;48.730;9.156;2023-03-03T13:47:20;10.20;99.90
8436;DHT22;4255;48.730;9.156;2023-03-03T13:52:58;9.90;99.90
8436;DHT22;4255;48.730;9.156;2023-03-03T13:55:32;10.10;99.90
8436;DHT22;4255;48.730;9.156;2023-03-03T13:58:07;10.60;99.90
8436;DHT22;4255;48.730;9.156;2023-03-03T14:00:52;10.60;99.90
8436;DHT22;4255;48.730;9.156;2023-03-03T14:03:46;10.60;99.90
8436;DHT22;4255;48.730;9.156;2023-03-03T14:06:16;10.20;99.90
8436;DHT22;4255;48.730;9.156;2023-03-03T14:11:39;10.20;99.90
8436;DHT22;4255;48.730;9.156;2023-03-03T14:16:54;10.30;99.90
8436;DHT22;4255;48.730;9.156;2023-03-03T14:19:26;10.50;99.90
8436;DHT22;4255;48.730;9.156;2023-03-03T14:24:22;10.60;99.90
8436;DHT22;4255;48.730;9.156;2023-03-03T14:26:51;10.70;99.90
8436;DHT22;4255;48.730;9.156;2023-03-03T14:31:50;10.60;99.90
8436;DHT22;4255;48.730;9.156;2023-03-03T14:36:49;10.80;99.90
8436;DHT22;4255;48.730;9.156;2023-03-03T14:39:33;10.90;99.90
8436;DHT22;4255;48.730;9.156;2023-03-03T14:42:00;11.00;99.90
8436;DHT22;4255;48.730;9.156;2023-03-03T14:45:14;10.80;99.90
8436;DHT22;4255;48.730;9.156;2023-03-03T14:47:21;10.70;99.90
8436;DHT22;4255;48.730;9.156;2023-03-03T14:49:47;10.70;99.90
8436;DHT22;4255;48.730;9.156;2023-03-03T14:54:45;10.60;99.90
8436;DHT22;4255;48.730;9.156;2023-03-03T14:57:48;10.20;99.90
8436;DHT22;4255;48.730;9.156;2023-03-03T15:05:25;10.50;99.90
8436;DHT22;4255;48.730;9.156;2023-03-03T15:07:57;10.60;99.90
8436;DHT22;4255;48.730;9.156;2023-03-03T15:12:53;10.30;99.90
8436;DHT22;4255;48.730;9.156;2023-03-03T15:15:21;10.50;99.90
8436;DHT22;4255;48.730;9.156;2023-03-03T15:26:13;10.10;99.90
8436;DHT22;4255;48.730;9.156;2023-03-03T15:31:38;10.30;99.90
8436;DHT22;4255;48.730;9.156;2023-03-03T15:37:30;10.70;99.90
8436;DHT22;4255;48.730;9.156;2023-03-03T15:40:26;10.50;99.90
8436;DHT22;4255;48.730;9.156;2023-03-03T15:48:32;10.80;99.90
8436;DHT22;4255;48.730;9.156;2023-03-03T15:56:45;10.50;99.90
8436;DHT22;4255;48.730;9.156;2023-03-03T16:04:37;10.70;99.90
8436;DHT22;4255;48.730;9.156;2023-03-03T16:07:29;10.60;99.90
8436;DHT22;4255;48.730;9.156;2023-03-03T16:15:54;10.20;99.90
8436;DHT22;4255;48.730;9.156;2023-03-03T16:18:36;10.30;99.90
8436;DHT22;4255;48.730;9.156;2023-03-03T16:29:34;10.70;99.90
8436;DHT22;4255;48.730;9.156;2023-03-03T16:37:36;10.20;99.90
8436;DHT22;4255;48.730;9.156;2023-03-03T16:40:14;10.20;99.90
8436;DHT22;4255;48.730;9.156;2023-03-03T16:42:42;10.30;99.90
8436;DHT22;4255;48.730;9.156;2023-03-03T16:56:09;10.00;99.90
8436;DHT22;4255;48.730;9.156;2023-03-03T16:58:58;9.90;99.90
8436;DHT22;4255;48.730;9.156;2023-03-03T17:01:38;9.70;99.90
8436;DHT22;4255;48.730;9.156;2023-03-03T17:04:19;9.70;99.90
8436;DHT22;4255;48.730;9.156;2023-03-03T17:07:02;9.80;99.90
8436;DHT22;4255;48.730;9.156;2023-03-03T17:13:07;9.60;99.90
8436;DHT22;4255;48.730;9.156;2023-03-03T17:21:36;9.40;99.90
8436;DHT22;4255;48.730;9.156;2023-03-03T17:26:50;9.10;99.90
8436;DHT22;4255;48.730;9.156;2023-03-03T17:29:33;9.00;99.90
8436;DHT22;4255;48.730;9.156;2023-03-03T17:32:19;8.90;99.90
8436;DHT22;4255;48.730;9.156;2023-03-03T17:37:54;8.80;99.90
8436;DHT22;4255;48.730;9.156;2023-03-03T17:43:24;8.80;99.90
8436;DHT22;4255;48.730;9.156;2023-03-03T17:45:54;8.70;99.90
8436;DHT22;4255;48.730;9.156;2023-03-03T18:13:54;8.20;99.90
8436;DHT22;4255;48.730;9.156;2023-03-03T18:24:26;7.90;99.90
8436;DHT22;4255;48.730;9.156;2023-03-03T18:26:53;7.90;99.90
8436;DHT22;4255;48.730;9.156;2023-03-03T18:29:27;7.90;99.90
8436;DHT22;4255;48.730;9.156;2023-03-03T18:34:40;7.90;99.90
8436;DHT22;4255;48.730;9.156;2023-03-03T18:42:36;7.80;99.90
8436;DHT22;4255;48.730;9.156;2023-03-03T18:48:09;7.70;99.90
8436;DHT22;4255;48.730;9.156;2023-03-03T18:50:47;7.50;99.90
8436;DHT22;4255;48.730;9.156;2023-03-03T18:53:28;7.30;99.90
8436;DHT22;4255;48.730;9.156;2023-03-03T18:55:59;7.10;99.90
8436;DHT22;4255;48.730;9.156;2023-03-03T18:58:36;7.20;99.90
8436;DHT22;4255;48.730;9.156;2023-03-03T19:04:18;7.20;99.90
8436;DHT22;4255;48.730;9.156;2023-03-03T19:09:18;7.20;99.90
8436;DHT22;4255;48.730;9.156;2023-03-03T19:11:53;7.00;99.90
8436;DHT22;4255;48.730;9.156;2023-03-03T19:16:54;6.80;99.90
8436;DHT22;4255;48.730;9.156;2023-03-03T19:19:23;6.70;99.90
8436;DHT22;4255;48.730;9.156;2023-03-03T19:22:13;6.70;99.90
8436;DHT22;4255;48.730;9.156;2023-03-03T19:24:37;6.80;99.90
8436;DHT22;4255;48.730;9.156;2023-03-03T19:27:22;6.60;99.90
8436;DHT22;4255;48.730;9.156;2023-03-03T19:30:06;6.50;99.90
8436;DHT22;4255;48.730;9.156;2023-03-03T19:35:19;6.50;99.90
8436;DHT22;4255;48.730;9.156;2023-03-03T19:38:15;6.30;99.90
8436;DHT22;4255;48.730;9.156;2023-03-03T19:52:02;6.10;99.90
8436;DHT22;4255;48.730;9.156;2023-03-03T20:16:54;6.10;99.90
8436;DHT22;4255;48.730;9.156;2023-03-03T20:33:30;6.00;99.90
8436;DHT22;4255;48.730;9.156;2023-03-03T20:39:09;6.00;99.90
8436;DHT22;4255;48.730;9.156;2023-03-03T20:44:20;5.70;99.90
8436;DHT22;4255;48.730;9.156;2023-03-03T20:52:42;5.40;99.90
8436;DHT22;4255;48.730;9.156;2023-03-03T20:55:22;5.30;99.90
8436;DHT22;4255;48.730;9.156;2023-03-03T20:58:32;5.40;99.90
8436;DHT22;4255;48.730;9.156;2023-03-03T21:01:06;5.30;99.90
8436;DHT22;4255;48.730;9.156;2023-03-03T21:06:16;5.30;99.90
8436;DHT22;4255;48.730;9.156;2023-03-03T21:08:54;5.40;99.90
8436;DHT22;4255;48.730;9.156;2023-03-03T21:13:57;5.30;99.90
8436;DHT22;4255;48.730;9.156;2023-03-03T21:19:00;5.20;99.90
8436;DHT22;4255;48.730;9.156;2023-03-03T21:21:32;5.30;99.90
8436;DHT22;4255;48.730;9.156;2023-03-03T21:23:58;5.40;99.90
8436;DHT22;4255;48.730;9.156;2023-03-03T21:26:56;5.30;99.90
8436;DHT22;4255;48.730;9.156;2023-03-03T21:29:30;5.10;99.90
8436;DHT22;4255;48.730;9.156;2023-03-03T21:31:59;5.00;99.90
8436;DHT22;4255;48.730;9.156;2023-03-03T21:34:29;5.00;99.90
8436;DHT22;4255;48.730;9.156;2023-03-03T21:36:57;4.90;99.90
8436;DHT22;4255;48.730;9.156;2023-03-03T21:42:38;5.00;99.90
8436;DHT22;4255;48.730;9.156;2023-03-03T21:45:09;5.00;99.90
8436;DHT22;4255;48.730;9.156;2023-03-03T21:47:35;4.90;99.90
8436;DHT22;4255;48.730;9.156;2023-03-03T21:50:01;4.90;99.90
8436;DHT22;4255;48.730;9.156;2023-03-03T21:52:27;4.80;99.90
8436;DHT22;4255;48.730;9.156;2023-03-03T21:54:52;4.80;99.90
8436;DHT22;4255;48.730;9.156;2023-03-03T21:57:18;4.90;99.90
8436;DHT22;4255;48.730;9.156;2023-03-03T21:59:43;4.90;99.90
8436;DHT22;4255;48.730;9.156;2023-03-03T22:02:09;4.90;99.90
8436;DHT22;4255;48.730;9.156;2023-03-03T22:04:35;4.90;99.90
8436;DHT22;4255;48.730;9.156;2023-03-03T22:07:03;4.80;99.90
8436;DHT22;4255;48.730;9.156;2023-03-03T22:09:28;4.70;99.90
8436;DHT22;4255;48.730;9.156;2023-03-03T22:11:54;4.50;99.90
8436;DHT22;4255;48.730;9.156;2023-03-03T22:14:19;4.60;99.90
8436;DHT22;4255;48.730;9.156;2023-03-03T22:16:45;4.60;99.90
8436;DHT22;4255;48.730;9.156;2023-03-03T22:19:11;4.60;99.90
8436;DHT22;4255;48.730;9.156;2023-03-03T22:21:37;4.60;99.90
8436;DHT22;4255;48.730;9.156;2023-03-03T22:24:05;4.60;99.90
8436;DHT22;4255;48.730;9.156;2023-03-03T22:26:30;4.40;99.90
8436;DHT22;4255;48.730;9.156;2023-03-03T22:28:56;4.30;99.90
8436;DHT22;4255;48.730;9.156;2023-03-03T22:31:22;4.40;99.90
8436;DHT22;4255;48.730;9.156;2023-03-03T22:33:48;4.50;99.90
8436;DHT22;4255;48.730;9.156;2023-03-03T22:36:14;4.60;99.90
8436;DHT22;4255;48.730;9.156;2023-03-03T22:38:44;4.60;99.90
8436;DHT22;4255;48.730;9.156;2023-03-03T22:41:16;4.70;99.90
8436;DHT22;4255;48.730;9.156;2023-03-03T22:43:45;4.70;99.90
8436;DHT22;4255;48.730;9.156;2023-03-03T22:46:26;4.70;99.90
8436;DHT22;4255;48.730;9.156;2023-03-03T22:48:53;4.70;99.90
8436;DHT22;4255;48.730;9.156;2023-03-03T22:51:22;4.70;99.90
8436;DHT22;4255;48.730;9.156;2023-03-03T22:53:54;4.70;99.90
8436;DHT22;4255;48.730;9.156;2023-03-03T22:56:20;4.70;99.90
8436;DHT22;4255;48.730;9.156;2023-03-03T22:58:45;4.70;99.90
8436;DHT22;4255;48.730;9.156;2023-03-03T23:01:11;4.60;99.90
8436;DHT22;4255;48.730;9.156;2023-03-03T23:03:37;4.70;99.90
8436;DHT22;4255;48.730;9.156;2023-03-03T23:06:03;4.70;99.90
8436;DHT22;4255;48.730;9.156;2023-03-03T23:08:29;4.70;99.90